JP-0006 weather

CLOSED Kyūshū Airport
Kokura Minami-ku, Fukuoka Prefecture, Japan

Public forecast

Using degrees Celsius for public forecast. Weather courtesy of forecast.io.

METAR (pilot weather report)

Closest report is Kitakyūshū Airport, 4.4 nm (8.2 km) E. Retrieved 2019/05/24 19:00 UTC (16 minutes ago):

RJFR 241900Z 02007KT CAVOK 19/14 Q1013

TAF (pilot weather forecast)

Closest forecast is Kitakyūshū Airport, 4.4 nm (8.2 km) E. Retrieved 2019/05/24 18:00 UTC (1 hour ago):

TAF RJFR 241708Z 2418/2600 04006KT 9999 FEW035 BECMG 2504/2506 32010KT BECMG 2512/2515 10003KT